createdAt,value
2022-10-15T00:01:56.021Z,97975.97
2022-10-15T00:06:47.697Z,97976.75
2022-10-15T00:11:40.402Z,97972.97
2022-10-15T00:16:33.636Z,97975.69
2022-10-15T00:21:25.853Z,97965.66
2022-10-15T00:26:21.929Z,97967.28
2022-10-15T00:31:16.207Z,97952.09
2022-10-15T00:36:14.337Z,97943.44
2022-10-15T00:41:07.999Z,97933.66
2022-10-15T00:45:59.652Z,97928.50
2022-10-15T00:50:51.288Z,97915.50
2022-10-15T00:55:43.913Z,97902.22
2022-10-15T01:00:36.009Z,97891.13
2022-10-15T01:05:28.721Z,97874.59
2022-10-15T01:10:21.758Z,97875.38
2022-10-15T01:15:28.714Z,97865.91
2022-10-15T01:20:26.014Z,97851.81
2022-10-15T01:25:23.743Z,97826.88
2022-10-15T01:30:50.917Z,97833.41
2022-10-15T01:35:50.402Z,97826.91
2022-10-15T01:40:51.552Z,97822.84
2022-10-15T01:45:52.975Z,97807.38
2022-10-15T01:50:48.687Z,97797.34
2022-10-15T01:55:44.159Z,97787.88
2022-10-15T02:00:35.860Z,97758.56
2022-10-15T02:05:35.570Z,97766.97
2022-10-15T02:10:48.668Z,97761.84
2022-10-15T02:16:02.496Z,97744.19
2022-10-15T02:21:03.384Z,97742.31
2022-10-15T02:25:56.693Z,97718.97
2022-10-15T02:30:52.930Z,97711.38
2022-10-15T02:35:46.780Z,97713.56
2022-10-15T02:40:40.696Z,97712.19
2022-10-15T02:45:32.454Z,97704.84
2022-10-15T02:50:24.226Z,97673.41
2022-10-15T02:55:15.994Z,97653.28
2022-10-15T03:00:08.488Z,97654.66
2022-10-15T03:05:00.212Z,97650.88
2022-10-15T03:09:51.895Z,97650.88
2022-10-15T03:14:43.531Z,97647.59
2022-10-15T03:19:36.147Z,97635.66
2022-10-15T03:24:27.901Z,97629.69
2022-10-15T03:29:19.608Z,97614.22
2022-10-15T03:34:11.271Z,97603.09
2022-10-15T03:39:03.081Z,97605.81
2022-10-15T03:43:54.715Z,97603.91
2022-10-15T03:48:50.244Z,97607.72
2022-10-15T03:53:41.848Z,97600.66
2022-10-15T03:58:33.646Z,97582.47
2022-10-15T04:03:25.359Z,97580.59
2022-10-15T04:08:17.123Z,97563.47
2022-10-15T04:13:08.745Z,97559.94
2022-10-15T04:18:00.333Z,97559.69
2022-10-15T04:22:52.049Z,97548.56
2022-10-15T04:27:43.751Z,97539.09
2022-10-15T04:32:35.623Z,97541.25
2022-10-15T04:37:27.284Z,97550.75
2022-10-15T04:42:19.010Z,97546.94
2022-10-15T04:47:11.031Z,97529.34
2022-10-15T04:52:02.762Z,97537.75
2022-10-15T04:56:54.568Z,97524.72
2022-10-15T05:01:46.215Z,97529.09
2022-10-15T05:06:38.193Z,97524.50
2022-10-15T05:11:29.982Z,97525.59
2022-10-15T05:16:25.059Z,97533.97
2022-10-15T05:21:17.723Z,97524.78
2022-10-15T05:26:13.342Z,97526.41
2022-10-15T05:31:07.693Z,97515.28
2022-10-15T05:36:28.364Z,97520.72
2022-10-15T05:41:20.638Z,97503.94
2022-10-15T05:46:12.237Z,97522.63
2022-10-15T05:51:09.041Z,97516.69
2022-10-15T05:56:00.729Z,97509.59
2022-10-15T06:00:57.309Z,97511.22
2022-10-15T06:05:49.188Z,97514.47
2022-10-15T06:10:40.900Z,97519.88
2022-10-15T06:15:33.582Z,97515.00
2022-10-15T06:20:25.432Z,97512.03
2022-10-15T06:25:17.147Z,97517.44
2022-10-15T06:30:09.383Z,97523.94
2022-10-15T06:35:01.022Z,97522.06
2022-10-15T06:39:52.724Z,97548.31
2022-10-15T06:44:44.320Z,97545.88
2022-10-15T06:49:36.148Z,97487.66
2022-10-15T06:54:27.868Z,97505.50
2022-10-15T06:59:19.806Z,97503.06
2022-10-15T07:04:11.582Z,97488.19
2022-10-15T07:09:04.350Z,97498.75
2022-10-15T07:13:58.100Z,97500.38
2022-10-15T07:18:49.998Z,97499.84
2022-10-15T07:23:41.664Z,97507.69
2022-10-15T07:28:33.438Z,97508.50
2022-10-15T07:33:25.183Z,97528.53
2022-10-15T07:38:18.082Z,97528.53
2022-10-15T07:43:09.775Z,97521.78
2022-10-15T07:48:01.680Z,97519.06
2022-10-15T07:52:53.453Z,97524.22
2022-10-15T07:57:45.184Z,97511.25
2022-10-15T08:02:36.914Z,97532.13
2022-10-15T08:07:28.633Z,97528.31
2022-10-15T08:12:20.547Z,97536.09
2022-10-15T08:17:12.315Z,97539.91
2022-10-15T08:22:04.015Z,97545.47
2022-10-15T08:26:57.771Z,97553.00
2022-10-15T08:31:49.567Z,97541.81
2022-10-15T08:36:41.359Z,97554.66
2022-10-15T08:41:40.496Z,97561.63
2022-10-15T08:46:39.652Z,97581.38
2022-10-15T08:51:46.617Z,97590.13
2022-10-15T08:56:43.280Z,97591.69
2022-10-15T09:01:43.659Z,97592.59
2022-10-15T09:06:38.526Z,97604.88
2022-10-15T09:11:42.286Z,97609.47
2022-10-15T09:16:38.470Z,97619.63
2022-10-15T09:21:32.289Z,97623.44
2022-10-15T09:26:39.267Z,97612.25
2022-10-15T09:31:40.542Z,97638.16
2022-10-15T09:36:46.501Z,97631.75
2022-10-15T09:42:16.426Z,97628.53
2022-10-15T09:47:24.780Z,97636.44
2022-10-15T09:52:38.357Z,97644.03
2022-10-15T09:57:33.337Z,97632.53
2022-10-15T10:02:26.746Z,97637.69
2022-10-15T10:07:37.593Z,97647.13
2022-10-15T10:12:34.106Z,97648.69
2022-10-15T10:17:30.464Z,97650.81
2022-10-15T10:22:22.351Z,97654.69
2022-10-15T10:27:28.340Z,97658.34
2022-10-15T10:32:23.689Z,97643.97
2022-10-15T10:37:15.674Z,97651.66
2022-10-15T10:42:24.904Z,97654.25
2022-10-15T10:47:16.733Z,97672.81
2022-10-15T10:52:20.843Z,97670.44
2022-10-15T10:57:15.842Z,97675.53
2022-10-15T11:02:13.266Z,97662.75
2022-10-15T11:07:09.917Z,97665.31
2022-10-15T11:12:10.656Z,97669.75
2022-10-15T11:17:20.019Z,97671.47
2022-10-15T11:22:39.603Z,97671.03
2022-10-15T11:27:59.213Z,97666.53
2022-10-15T11:33:12.523Z,97662.25
2022-10-15T11:38:29.664Z,97676.84
2022-10-15T11:43:40.053Z,97689.72
2022-10-15T11:48:40.327Z,97691.94
2022-10-15T11:53:31.843Z,97691.63
2022-10-15T11:58:54.938Z,97680.84
2022-10-15T12:03:58.681Z,97674.69
2022-10-15T12:08:52.462Z,97659.13
2022-10-15T12:13:56.299Z,97653.34
2022-10-15T12:19:06.742Z,97641.00
2022-10-15T12:23:58.518Z,97642.44
2022-10-15T12:28:53.355Z,97645.91
2022-10-15T12:33:50.232Z,97641.16
2022-10-15T12:38:52.176Z,97624.44
2022-10-15T12:43:52.919Z,97622.41
2022-10-15T12:48:46.832Z,97627.00
2022-10-15T12:53:42.972Z,97627.00
2022-10-15T12:58:37.510Z,97626.81
2022-10-15T13:03:38.089Z,97619.38
2022-10-15T13:08:31.497Z,97615.75
2022-10-15T13:13:27.405Z,97609.28
2022-10-15T13:18:22.591Z,97589.09
2022-10-15T13:23:29.679Z,97589.19
2022-10-15T13:28:34.604Z,97567.56
2022-10-15T13:33:27.109Z,97586.91
2022-10-15T13:38:25.363Z,97592.13
2022-10-15T13:43:22.743Z,97562.91
2022-10-15T13:48:22.146Z,97561.00
2022-10-15T13:53:27.187Z,97561.78
2022-10-15T13:58:26.649Z,97558.38
2022-10-15T14:03:22.634Z,97556.34
2022-10-15T14:08:19.422Z,97551.41
2022-10-15T14:13:11.606Z,97549.34
2022-10-15T14:18:03.670Z,97545.81
2022-10-15T14:22:55.614Z,97539.88
2022-10-15T14:27:47.362Z,97531.97
2022-10-15T14:32:52.118Z,97525.28
2022-10-15T14:37:43.845Z,97525.91
2022-10-15T14:43:01.650Z,97495.03
2022-10-15T14:47:58.739Z,97514.06
2022-10-15T14:52:53.080Z,97513.94
2022-10-15T14:57:45.984Z,97511.53
2022-10-15T15:02:37.803Z,97509.69
2022-10-15T15:07:29.540Z,97507.47
2022-10-15T15:12:27.879Z,97510.91
2022-10-15T15:17:23.061Z,97509.69
2022-10-15T15:22:18.861Z,97513.13
2022-10-15T15:27:23.262Z,97502.09
2022-10-15T15:32:15.953Z,97511.75
2022-10-15T15:37:36.717Z,97505.56
2022-10-15T15:42:28.603Z,97506.47
2022-10-15T15:47:20.476Z,97508.69
2022-10-15T15:52:18.873Z,97507.81
2022-10-15T15:57:11.170Z,97493.81
2022-10-15T16:02:02.863Z,97513.78
2022-10-15T16:06:54.795Z,97512.13
2022-10-15T16:11:46.422Z,97507.38
2022-10-15T16:16:38.313Z,97490.94
2022-10-15T16:21:30.063Z,97491.03
2022-10-15T16:26:22.070Z,97495.44
2022-10-15T16:31:15.233Z,97497.94
2022-10-15T16:36:07.074Z,97494.66
2022-10-15T16:40:58.890Z,97494.06
2022-10-15T16:46:00.344Z,97496.47
2022-10-15T16:51:10.773Z,97491.47
2022-10-15T16:56:05.056Z,97488.63
2022-10-15T17:01:00.900Z,97486.88
2022-10-15T17:06:00.405Z,97494.91
2022-10-15T17:10:52.229Z,97508.84
2022-10-15T17:15:43.868Z,97518.19
2022-10-15T17:20:43.716Z,97516.59
2022-10-15T17:25:36.281Z,97529.69
2022-10-15T17:30:28.005Z,97531.63
2022-10-15T17:35:21.117Z,97538.44
2022-10-15T17:40:13.654Z,97551.28
2022-10-15T17:45:05.684Z,97551.84
2022-10-15T17:49:57.499Z,97548.34
2022-10-15T17:54:49.254Z,97551.09
2022-10-15T17:59:40.885Z,97550.28
2022-10-15T18:04:32.527Z,97537.81
2022-10-15T18:09:28.304Z,97546.81
2022-10-15T18:14:21.971Z,97543.81
2022-10-15T18:19:14.237Z,97562.84
2022-10-15T18:24:06.018Z,97565.31
2022-10-15T18:30:13.608Z,97572.91
2022-10-15T18:36:15.974Z,97591.34
2022-10-15T18:41:55.582Z,97592.19
2022-10-15T18:46:47.536Z,97590.56
2022-10-15T18:56:45.518Z,97571.06
2022-10-15T19:21:31.273Z,97595.25
2022-10-15T19:26:23.036Z,97593.09
2022-10-15T19:31:36.463Z,97583.34
2022-10-15T19:36:34.264Z,97581.97
2022-10-15T19:41:25.859Z,97561.91
2022-10-15T19:46:17.664Z,97569.22
2022-10-15T19:51:09.266Z,97571.94
2022-10-15T19:56:03.848Z,97586.31
2022-10-15T20:00:55.436Z,97592.00
2022-10-15T20:05:47.436Z,97579.81
2022-10-15T20:10:44.584Z,97586.59
2022-10-15T20:15:40.968Z,97587.97
2022-10-15T20:20:36.317Z,97569.50
2022-10-15T20:25:27.893Z,97586.88
2022-10-15T20:30:21.324Z,97579.28
2022-10-15T20:35:13.326Z,97584.38
2022-10-15T20:40:05.622Z,97584.91
2022-10-15T20:44:57.299Z,97580.03
2022-10-15T20:49:52.622Z,97583.53
2022-10-15T20:54:44.588Z,97576.75
2022-10-15T20:59:36.758Z,97575.38
2022-10-15T21:04:28.377Z,97583.75
2022-10-15T21:09:20.115Z,97590.53
2022-10-15T21:14:13.626Z,97580.22
2022-10-15T21:19:05.346Z,97594.56
2022-10-15T21:23:58.236Z,97589.13
2022-10-15T21:28:58.347Z,97589.69
2022-10-15T21:33:50.281Z,97583.47
2022-10-15T21:38:42.571Z,97591.31
2022-10-15T21:43:34.943Z,97598.38
2022-10-15T21:48:27.398Z,97598.91
2022-10-15T21:53:19.296Z,97591.84
2022-10-15T21:58:10.981Z,97593.75
2022-10-15T22:03:02.613Z,97592.13
2022-10-15T22:07:54.491Z,97605.38
2022-10-15T22:12:52.181Z,97615.41
2022-10-15T22:17:43.943Z,97618.38
2022-10-15T22:22:35.546Z,97619.72
2022-10-15T22:27:27.431Z,97628.09
2022-10-15T22:32:19.145Z,97652.22
2022-10-15T22:37:10.746Z,97646.00
2022-10-15T22:42:02.408Z,97640.84
2022-10-15T22:46:54.003Z,97641.09
2022-10-15T22:51:45.848Z,97635.16
2022-10-15T22:56:38.100Z,97621.88
2022-10-15T23:01:32.052Z,97626.19
2022-10-15T23:06:25.865Z,97640.53
2022-10-15T23:11:21.526Z,97641.09
2022-10-15T23:16:19.628Z,97652.19
2022-10-15T23:21:18.610Z,97641.63
2022-10-15T23:26:15.579Z,97627.50
2022-10-15T23:31:07.440Z,97631.88
2022-10-15T23:36:02.472Z,97632.13
2022-10-15T23:41:08.665Z,97632.13
2022-10-15T23:46:00.829Z,97621.81
2022-10-15T23:50:52.692Z,97623.94
2022-10-15T23:55:44.741Z,97616.94
